Time;durP1;ratioP1;P1;durP2;ratioP2;P2;SDS_P1;SDS_P2;PMS_P1;PMS_P2;Temp;Humidity;BMP_temperature;BMP_pressure;BME280_temperature;BME280_humidity;BME280_pressure;Samples;Min_cycle;Max_cycle;Signal;HPM_P1;HPM_P2
2023/09/13 00:01:50;;;;;;;2.30;1.60;;;27.30;57.40;;;;;;5015472;28;20116;-69
2023/09/13 00:04:16;;;;;;;2.55;1.70;;;27.30;57.40;;;;;;5035105;28;20026;-68
2023/09/13 00:06:42;;;;;;;2.00;1.52;;;27.20;57.40;;;;;;5030940;28;20049;-68
2023/09/13 00:09:08;;;;;;;2.40;1.60;;;27.20;57.40;;;;;;5034346;28;20026;-65
2023/09/13 00:11:35;;;;;;;2.90;1.75;;;27.20;57.40;;;;;;5027648;28;20022;-68
2023/09/13 00:14:01;;;;;;;2.15;1.70;;;27.20;57.40;;;;;;5033923;28;20051;-65
2023/09/13 00:16:27;;;;;;;2.10;1.88;;;27.20;57.40;;;;;;5031248;28;20045;-66
2023/09/13 00:18:53;;;;;;;2.28;1.70;;;27.20;57.40;;;;;;5033395;28;20087;-68
2023/09/13 00:21:20;;;;;;;1.65;1.55;;;27.20;57.40;;;;;;5037237;28;20039;-66
2023/09/13 00:23:46;;;;;;;2.15;1.75;;;27.20;57.40;;;;;;5032565;28;20026;-66
2023/09/13 00:26:14;;;;;;;1.95;1.73;;;27.20;57.40;;;;;;5039970;28;20417;-64
2023/09/13 00:28:41;;;;;;;2.10;1.60;;;27.20;57.50;;;;;;5030499;28;20033;-67
2023/09/13 00:31:10;;;;;;;2.13;1.60;;;27.20;57.50;;;;;;5030868;28;20021;-69
2023/09/13 00:33:36;;;;;;;2.25;1.55;;;27.20;57.50;;;;;;5017376;28;20291;-69
2023/09/13 00:36:02;;;;;;;2.75;1.80;;;27.20;57.50;;;;;;5029889;28;20157;-65
2023/09/13 00:38:28;;;;;;;2.15;1.55;;;27.20;57.50;;;;;;5020790;28;20368;-67
2023/09/13 00:40:54;;;;;;;3.35;1.92;;;27.20;57.50;;;;;;5015442;28;20045;-68
2023/09/13 00:43:20;;;;;;;2.13;1.70;;;27.20;57.50;;;;;;5032120;28;20116;-66
2023/09/13 00:45:48;;;;;;;1.90;1.75;;;27.20;57.50;;;;;;5029308;28;20474;-66
2023/09/13 00:48:15;;;;;;;1.98;1.70;;;27.20;57.50;;;;;;5015674;28;20044;-68
2023/09/13 00:50:42;;;;;;;2.10;1.60;;;27.10;57.40;;;;;;5014137;28;20423;-67
2023/09/13 00:53:09;;;;;;;2.35;1.95;;;27.10;57.40;;;;;;5014623;28;20095;-68
2023/09/13 00:55:35;;;;;;;1.75;1.63;;;27.10;57.40;;;;;;5014026;28;20021;-65
2023/09/13 00:58:04;;;;;;;1.60;1.40;;;27.10;57.40;;;;;;5036053;28;20151;-66
2023/09/13 01:00:32;;;;;;;2.17;1.90;;;27.10;57.40;;;;;;5041114;28;20033;-67
2023/09/13 01:02:59;;;;;;;2.03;1.75;;;27.10;57.50;;;;;;5031819;28;20044;-66
2023/09/13 01:05:26;;;;;;;2.67;1.75;;;27.10;57.50;;;;;;5018853;28;20123;-65
2023/09/13 01:07:52;;;;;;;2.10;1.50;;;27.10;57.50;;;;;;5034118;28;20054;-65
2023/09/13 01:10:19;;;;;;;2.05;1.70;;;27.10;57.50;;;;;;5037165;28;20353;-68
2023/09/13 01:12:46;;;;;;;2.20;1.83;;;27.10;57.50;;;;;;5032087;28;20053;-67
2023/09/13 01:15:13;;;;;;;2.72;1.90;;;27.10;57.50;;;;;;5024953;28;20021;-65
2023/09/13 01:17:50;;;;;;;1.73;1.63;;;27.10;57.50;;;;;;5014697;28;20470;-66
2023/09/13 01:20:23;;;;;;;2.28;1.67;;;27.10;57.50;;;;;;5020717;28;20127;-66
2023/09/13 01:23:04;;;;;;;2.37;1.60;;;27.10;57.50;;;;;;5036484;28;20108;-66
2023/09/13 01:25:48;;;;;;;3.38;2.10;;;27.10;57.50;;;;;;5007135;28;20300;-67
2023/09/13 01:28:32;;;;;;;2.45;1.63;;;27.10;57.50;;;;;;5017642;28;20091;-66
2023/09/13 01:30:58;;;;;;;1.95;1.73;;;27.00;57.50;;;;;;5018887;28;20091;-66
2023/09/13 01:33:24;;;;;;;2.40;1.92;;;27.10;57.60;;;;;;5017780;28;20026;-66
2023/09/13 01:35:51;;;;;;;2.03;1.60;;;27.00;57.50;;;;;;5030690;28;20025;-67
2023/09/13 01:38:17;;;;;;;2.38;2.00;;;27.00;57.50;;;;;;4999638;28;20373;-66
2023/09/13 01:40:47;;;;;;;2.47;2.28;;;27.00;57.50;;;;;;5013780;28;20049;-67
2023/09/13 01:43:14;;;;;;;2.30;2.10;;;27.00;57.50;;;;;;5016719;28;20109;-65
2023/09/13 01:45:41;;;;;;;2.10;1.85;;;27.00;57.50;;;;;;5022096;28;20041;-67
2023/09/13 01:48:10;;;;;;;2.90;2.03;;;27.00;58.10;;;;;;5032119;28;20480;-64
2023/09/13 01:50:38;;;;;;;2.60;2.10;;;27.00;57.50;;;;;;5032203;28;20032;-67
2023/09/13 01:53:04;;;;;;;2.63;1.98;;;27.00;57.50;;;;;;5029533;28;20037;-67
2023/09/13 01:55:33;;;;;;;3.42;1.70;;;27.00;57.50;;;;;;5008097;28;20382;-68
2023/09/13 01:57:59;;;;;;;3.60;1.90;;;27.00;57.50;;;;;;5031454;28;20103;-66
2023/09/13 02:00:25;;;;;;;2.15;1.95;;;27.00;57.50;;;;;;5023325;28;20179;-67
2023/09/13 02:02:51;;;;;;;2.92;2.28;;;27.00;58.20;;;;;;5026617;28;20041;-66
2023/09/13 02:05:17;;;;;;;2.83;2.17;;;27.00;57.50;;;;;;5030860;28;20049;-65
2023/09/13 02:07:43;;;;;;;2.38;2.17;;;27.00;57.50;;;;;;5014242;28;20417;-67
2023/09/13 02:10:09;;;;;;;1.90;1.67;;;27.00;57.60;;;;;;5014251;28;20026;-63
2023/09/13 02:12:35;;;;;;;2.50;1.90;;;27.00;57.60;;;;;;5035089;28;20040;-65
2023/09/13 02:15:01;;;;;;;2.22;1.92;;;27.00;57.60;;;;;;5030891;28;20106;-68
2023/09/13 02:17:27;;;;;;;2.13;1.92;;;27.00;57.60;;;;;;5013547;28;20055;-64
2023/09/13 02:19:53;;;;;;;3.05;2.47;;;26.90;57.60;;;;;;5031599;28;20109;-69
2023/09/13 02:22:19;;;;;;;2.60;2.17;;;26.90;57.60;;;;;;5012944;28;20037;-68
2023/09/13 02:24:45;;;;;;;2.35;1.92;;;26.90;57.60;;;;;;5018519;28;20033;-68
2023/09/13 02:27:10;;;;;;;2.33;2.13;;;26.90;57.70;;;;;;5007726;28;20126;-68
2023/09/13 02:29:37;;;;;;;2.28;1.98;;;26.90;57.70;;;;;;5013443;28;20021;-66
2023/09/13 02:32:03;;;;;;;2.10;1.80;;;26.90;57.80;;;;;;5013976;28;20167;-66
2023/09/13 02:34:29;;;;;;;2.70;1.90;;;26.90;57.80;;;;;;5029938;28;20030;-68
2023/09/13 02:36:56;;;;;;;4.03;2.20;;;26.90;57.90;;;;;;5024001;28;20087;-66
2023/09/13 02:39:30;;;;;;;2.40;2.13;;;26.90;57.90;;;;;;5013725;28;20075;-65
2023/09/13 02:41:56;;;;;;;2.23;1.90;;;26.90;57.90;;;;;;5010209;28;20057;-66
2023/09/13 02:44:22;;;;;;;2.58;2.05;;;26.90;57.90;;;;;;5021051;28;20029;-66
2023/09/13 02:46:47;;;;;;;2.90;2.10;;;26.90;58.00;;;;;;5013635;28;20029;-65
2023/09/13 02:49:13;;;;;;;2.78;1.98;;;26.90;58.00;;;;;;5014411;28;20053;-68
2023/09/13 02:51:39;;;;;;;2.33;1.98;;;26.90;58.00;;;;;;5013005;28;20403;-65
2023/09/13 02:54:05;;;;;;;4.60;1.90;;;26.90;58.00;;;;;;5018519;28;20056;-65
2023/09/13 02:56:31;;;;;;;3.13;2.13;;;26.90;58.00;;;;;;5019252;28;20044;-68
2023/09/13 02:58:57;;;;;;;2.22;1.98;;;26.90;58.10;;;;;;5044291;28;20435;-66
2023/09/13 03:01:23;;;;;;;2.90;2.40;;;26.90;58.10;;;;;;5026429;28;20090;-66
2023/09/13 03:03:49;;;;;;;2.42;2.22;;;26.90;58.10;;;;;;5044114;28;20093;-65
2023/09/13 03:06:15;;;;;;;2.75;2.20;;;26.90;58.10;;;;;;5022929;28;20113;-65
2023/09/13 03:08:43;;;;;;;3.22;2.42;;;26.90;58.10;;;;;;5036852;28;20413;-66
2023/09/13 03:11:10;;;;;;;2.05;1.85;;;26.90;58.10;;;;;;5042485;28;20040;-69
2023/09/13 03:13:37;;;;;;;3.10;1.98;;;26.90;58.80;;;;;;5026797;28;20212;-67
2023/09/13 03:16:16;;;;;;;3.05;2.40;;;26.90;58.20;;;;;;5026071;28;20044;-70
2023/09/13 03:18:44;;;;;;;2.25;2.05;;;26.90;58.30;;;;;;5017993;28;20031;-65
2023/09/13 03:21:12;;;;;;;2.10;1.90;;;26.90;58.30;;;;;;5025514;28;20444;-64
2023/09/13 03:23:42;;;;;;;2.35;2.10;;;26.90;58.30;;;;;;5042096;28;20041;-65
2023/09/13 03:26:22;;;;;;;2.28;2.08;;;26.80;58.30;;;;;;5039132;28;20032;-70
2023/09/13 03:28:51;;;;;;;2.30;1.90;;;26.80;58.30;;;;;;5023065;28;20044;-70
2023/09/13 03:31:20;;;;;;;2.50;2.15;;;26.80;58.30;;;;;;5040177;28;20104;-66
2023/09/13 03:33:48;;;;;;;2.65;2.25;;;26.80;58.40;;;;;;5025979;28;20092;-65
2023/09/13 03:36:15;;;;;;;3.03;2.30;;;26.80;58.40;;;;;;5028814;28;20109;-65
2023/09/13 03:38:46;;;;;;;2.45;2.00;;;26.80;58.40;;;;;;5025624;28;20128;-66
2023/09/13 03:41:15;;;;;;;2.55;2.20;;;26.80;58.40;;;;;;5047785;28;20108;-65
2023/09/13 03:43:41;;;;;;;2.42;2.08;;;26.80;58.40;;;;;;5028374;28;20071;-69
2023/09/13 03:46:08;;;;;;;2.75;2.15;;;26.80;58.40;;;;;;5029392;28;20017;-66
2023/09/13 03:48:36;;;;;;;3.95;2.50;;;26.80;58.50;;;;;;5028235;28;20107;-64
2023/09/13 03:51:03;;;;;;;2.97;2.17;;;26.80;58.40;;;;;;5030542;28;20066;-70
2023/09/13 03:53:29;;;;;;;2.70;2.25;;;26.80;58.40;;;;;;5030865;28;20021;-67
2023/09/13 03:55:57;;;;;;;2.50;2.00;;;26.80;58.50;;;;;;5028708;28;20021;-64
2023/09/13 03:58:23;;;;;;;4.22;2.40;;;26.80;58.50;;;;;;5030275;28;20028;-68
2023/09/13 04:00:49;;;;;;;2.70;2.08;;;26.80;58.50;;;;;;5029677;28;20203;-65
2023/09/13 04:03:16;;;;;;;3.03;2.40;;;26.80;58.50;;;;;;5044008;28;20454;-65
2023/09/13 04:05:42;;;;;;;3.53;2.60;;;26.80;58.50;;;;;;5043847;28;20033;-65
2023/09/13 04:08:08;;;;;;;3.45;2.42;;;26.80;58.60;;;;;;5023141;28;20111;-67
2023/09/13 04:10:34;;;;;;;4.00;3.42;;;26.80;58.60;;;;;;5047471;28;20497;-68
2023/09/13 04:13:00;;;;;;;4.85;2.92;;;26.80;58.60;;;;;;5047975;28;20040;-67
2023/09/13 04:15:26;;;;;;;3.42;3.03;;;26.80;58.60;;;;;;5029000;28;20044;-65
2023/09/13 04:17:52;;;;;;;3.88;3.28;;;26.80;58.60;;;;;;5038492;28;20047;-68
2023/09/13 04:20:20;;;;;;;3.85;3.47;;;26.80;58.60;;;;;;5028827;28;20044;-67
2023/09/13 04:22:46;;;;;;;4.32;3.55;;;26.70;58.60;;;;;;5027463;28;20029;-70
2023/09/13 04:25:14;;;;;;;4.88;4.10;;;26.70;58.60;;;;;;5041868;28;20104;-67
2023/09/13 04:27:47;;;;;;;4.85;3.85;;;26.70;58.60;;;;;;5028375;28;20459;-67
2023/09/13 04:30:15;;;;;;;7.10;4.20;;;26.70;58.60;;;;;;5028083;28;20048;-68
2023/09/13 04:32:42;;;;;;;6.35;3.88;;;26.70;58.70;;;;;;5027731;28;20199;-68
2023/09/13 04:35:08;;;;;;;7.18;3.95;;;26.70;58.70;;;;;;5024073;28;20033;-65
2023/09/13 04:37:35;;;;;;;5.20;3.70;;;26.70;58.70;;;;;;5029182;28;20094;-66
2023/09/13 04:40:06;;;;;;;5.20;4.15;;;26.70;58.70;;;;;;5008901;28;20119;-67
2023/09/13 04:42:42;;;;;;;5.57;4.18;;;26.70;58.70;;;;;;5030339;28;20183;-66
2023/09/13 04:45:09;;;;;;;5.38;4.43;;;26.70;58.80;;;;;;5046784;28;20099;-64
2023/09/13 04:47:38;;;;;;;5.85;5.10;;;26.70;58.80;;;;;;5027823;28;20052;-69
2023/09/13 04:50:05;;;;;;;6.45;4.53;;;26.70;58.80;;;;;;5045777;28;20052;-68
2023/09/13 04:52:31;;;;;;;8.02;5.07;;;26.70;58.80;;;;;;5029464;28;20033;-66
2023/09/13 04:54:57;;;;;;;6.75;5.30;;;26.70;58.80;;;;;;5028453;28;20037;-69
2023/09/13 04:57:23;;;;;;;5.32;4.32;;;26.70;58.80;;;;;;5024785;28;20147;-69
2023/09/13 04:59:49;;;;;;;5.47;4.80;;;26.70;58.80;;;;;;5026708;28;20472;-65
2023/09/13 05:02:15;;;;;;;5.78;5.05;;;26.70;58.80;;;;;;5028143;28;20029;-65
2023/09/13 05:04:42;;;;;;;5.32;4.38;;;26.70;58.80;;;;;;5024872;28;20034;-68
2023/09/13 05:07:08;;;;;;;7.43;4.88;;;26.70;58.70;;;;;;5035798;28;20083;-67
2023/09/13 05:09:36;;;;;;;6.28;4.70;;;26.70;58.70;;;;;;5026721;28;20072;-67
2023/09/13 05:12:02;;;;;;;5.55;4.93;;;26.60;58.60;;;;;;5046110;28;20347;-66
2023/09/13 05:14:28;;;;;;;6.40;5.30;;;26.70;58.70;;;;;;5027162;28;20037;-71
2023/09/13 05:16:54;;;;;;;5.40;4.90;;;26.70;58.60;;;;;;5042642;28;20025;-65
2023/09/13 05:19:20;;;;;;;5.50;4.78;;;26.60;58.50;;;;;;5039054;28;20219;-69
2023/09/13 05:21:46;;;;;;;6.25;4.80;;;26.60;58.50;;;;;;5027753;28;20089;-69
2023/09/13 05:24:12;;;;;;;5.47;4.40;;;26.60;58.50;;;;;;5045672;28;20163;-66
2023/09/13 05:26:38;;;;;;;6.03;4.90;;;26.60;58.50;;;;;;5025193;28;20025;-69
2023/09/13 05:29:04;;;;;;;5.00;4.47;;;26.60;58.40;;;;;;5043957;28;20040;-64
2023/09/13 05:31:31;;;;;;;5.60;5.05;;;26.60;58.40;;;;;;5045290;28;20021;-67
2023/09/13 05:33:57;;;;;;;6.93;4.78;;;26.60;58.30;;;;;;5040520;28;20045;-66
2023/09/13 05:36:23;;;;;;;5.40;4.82;;;26.60;58.90;;;;;;5046606;28;20072;-68
2023/09/13 05:38:49;;;;;;;5.43;4.60;;;26.60;58.20;;;;;;5026506;28;20384;-67
2023/09/13 05:41:15;;;;;;;5.60;4.38;;;26.60;58.10;;;;;;5042877;28;20024;-66
2023/09/13 05:43:42;;;;;;;5.30;4.80;;;26.60;58.80;;;;;;5044423;28;20025;-65
2023/09/13 05:46:09;;;;;;;5.90;5.28;;;26.60;58.00;;;;;;5042171;28;20041;-69
2023/09/13 05:48:36;;;;;;;5.43;4.93;;;26.60;58.00;;;;;;5040196;28;20060;-65
2023/09/13 05:51:03;;;;;;;5.35;4.75;;;26.60;57.90;;;;;;5018812;28;20101;-67
2023/09/13 05:53:35;;;;;;;5.55;4.35;;;26.60;57.90;;;;;;5036111;28;20040;-70
2023/09/13 05:56:03;;;;;;;5.53;4.85;;;26.60;57.90;;;;;;5019975;28;20096;-67
2023/09/13 05:58:29;;;;;;;4.97;4.45;;;26.60;57.90;;;;;;5043551;28;20029;-66
2023/09/13 06:00:56;;;;;;;5.47;4.95;;;26.60;57.90;;;;;;5042586;28;20110;-67
2023/09/13 06:03:22;;;;;;;5.53;4.75;;;26.60;57.90;;;;;;5042643;28;20139;-64
2023/09/13 06:05:51;;;;;;;5.25;4.72;;;26.60;57.80;;;;;;5044795;28;20108;-69
2023/09/13 06:08:20;;;;;;;5.03;4.53;;;26.60;57.80;;;;;;5013239;28;20066;-68
2023/09/13 06:10:46;;;;;;;6.45;4.75;;;26.60;57.80;;;;;;5014778;28;20024;-64
2023/09/13 06:13:12;;;;;;;5.25;4.38;;;26.60;57.80;;;;;;5042624;28;20041;-68
2023/09/13 06:15:38;;;;;;;4.85;4.22;;;26.60;57.70;;;;;;5045720;28;20025;-65
2023/09/13 06:18:05;;;;;;;5.55;4.50;;;26.60;57.70;;;;;;5042327;28;20064;-66
2023/09/13 06:20:31;;;;;;;5.20;4.30;;;26.60;57.70;;;;;;5023441;28;20036;-68
2023/09/13 06:22:57;;;;;;;5.20;4.22;;;26.60;57.70;;;;;;5043152;28;20033;-67
2023/09/13 06:25:23;;;;;;;6.47;4.80;;;26.60;57.70;;;;;;5023596;28;20154;-66
2023/09/13 06:27:48;;;;;;;5.38;4.70;;;26.60;57.60;;;;;;5041408;28;20126;-72
2023/09/13 06:30:14;;;;;;;6.43;4.35;;;26.60;57.60;;;;;;5041883;28;20459;-64
2023/09/13 06:32:40;;;;;;;4.90;4.25;;;26.60;57.60;;;;;;5020994;28;20021;-64
2023/09/13 06:35:12;;;;;;;6.35;4.55;;;26.60;57.60;;;;;;5043091;28;20355;-64
2023/09/13 06:37:39;;;;;;;5.43;4.28;;;26.60;57.50;;;;;;5035182;28;20402;-64
2023/09/13 06:40:05;;;;;;;5.93;4.72;;;26.60;57.50;;;;;;5046832;28;20135;-67
2023/09/13 06:42:31;;;;;;;5.03;4.53;;;26.60;57.50;;;;;;5041931;28;20175;-65
2023/09/13 06:44:59;;;;;;;5.65;4.53;;;26.60;57.50;;;;;;5045244;28;20405;-67
2023/09/13 06:47:28;;;;;;;4.80;4.30;;;26.60;57.50;;;;;;5022018;28;20065;-66
2023/09/13 06:49:55;;;;;;;7.78;4.80;;;26.60;57.50;;;;;;5036948;28;20035;-65
2023/09/13 06:52:21;;;;;;;6.35;4.97;;;26.60;57.60;;;;;;5032405;28;20527;-64
2023/09/13 06:54:47;;;;;;;6.60;4.38;;;26.60;57.60;;;;;;5011266;28;20127;-64
2023/09/13 06:57:13;;;;;;;5.60;4.28;;;26.50;57.50;;;;;;5014235;28;20029;-67
2023/09/13 06:59:39;;;;;;;6.75;4.20;;;26.60;57.60;;;;;;5026138;28;20162;-66
2023/09/13 07:02:06;;;;;;;6.50;4.68;;;26.60;57.60;;;;;;5031191;28;20414;-65
2023/09/13 07:04:32;;;;;;;5.82;4.05;;;26.60;57.60;;;;;;5031460;28;20412;-63
2023/09/13 07:06:58;;;;;;;5.25;3.28;;;26.50;57.50;;;;;;5013941;28;20030;-64
2023/09/13 07:09:24;;;;;;;3.53;2.55;;;26.50;57.30;;;;;;5033303;28;20029;-66
2023/09/13 07:11:50;;;;;;;2.45;2.00;;;26.50;57.10;;;;;;5031817;28;20084;-67
2023/09/13 07:14:17;;;;;;;2.30;1.88;;;26.50;56.80;;;;;;5031591;28;20100;-66
2023/09/13 07:16:42;;;;;;;2.53;1.63;;;26.50;56.50;;;;;;5031526;28;20030;-67
2023/09/13 07:19:08;;;;;;;1.75;1.45;;;26.50;56.20;;;;;;5023087;28;20391;-66
2023/09/13 07:21:34;;;;;;;2.10;1.25;;;26.50;55.90;;;;;;5030675;28;20061;-66
2023/09/13 07:24:00;;;;;;;1.25;1.10;;;26.50;55.70;;;;;;5029491;28;20037;-65
2023/09/13 07:26:26;;;;;;;2.30;1.25;;;26.50;55.40;;;;;;5031078;28;20401;-65
2023/09/13 07:28:52;;;;;;;1.23;0.93;;;26.50;55.10;;;;;;5027553;28;20103;-65
2023/09/13 07:31:18;;;;;;;1.35;1.08;;;26.50;54.90;;;;;;5034789;28;20380;-68
2023/09/13 07:33:44;;;;;;;1.35;1.00;;;26.50;54.70;;;;;;5040940;28;20080;-69
2023/09/13 07:36:10;;;;;;;1.02;0.80;;;26.50;54.50;;;;;;5017812;28;20279;-67
2023/09/13 07:38:37;;;;;;;0.85;0.75;;;26.50;54.30;;;;;;5015068;28;20044;-66
2023/09/13 07:41:03;;;;;;;0.90;0.70;;;26.50;54.10;;;;;;5031192;28;20037;-67
2023/09/13 07:43:29;;;;;;;0.63;0.55;;;26.50;54.00;;;;;;5033569;28;20401;-67
2023/09/13 07:45:55;;;;;;;1.75;0.80;;;26.50;53.80;;;;;;5051783;28;20045;-67
2023/09/13 07:48:23;;;;;;;1.40;0.60;;;26.40;53.60;;;;;;5000876;28;20080;-66
2023/09/13 07:50:49;;;;;;;0.50;0.50;;;26.40;53.50;;;;;;4996175;28;20030;-64
2023/09/13 07:53:15;;;;;;;0.73;0.45;;;26.50;53.40;;;;;;4999142;28;20134;-64
2023/09/13 07:55:41;;;;;;;0.55;0.45;;;26.50;53.30;;;;;;5008448;28;20036;-65
2023/09/13 07:58:08;;;;;;;0.90;0.47;;;26.50;53.30;;;;;;5010905;28;20030;-66
2023/09/13 08:00:43;;;;;;;0.43;0.43;;;26.40;53.10;;;;;;5010213;28;20096;-62
2023/09/13 08:03:09;;;;;;;0.90;0.40;;;26.50;53.10;;;;;;5005018;28;20057;-65
2023/09/13 08:05:36;;;;;;;1.25;0.45;;;26.50;53.00;;;;;;5007685;28;20045;-66
2023/09/13 08:08:03;;;;;;;0.65;0.30;;;26.40;52.80;;;;;;4995268;28;20072;-64
2023/09/13 08:10:29;;;;;;;1.02;0.30;;;26.50;52.90;;;;;;4994124;28;20038;-63
2023/09/13 08:12:55;;;;;;;0.52;0.30;;;26.50;52.80;;;;;;4992656;28;20037;-65
2023/09/13 08:15:21;;;;;;;0.70;0.30;;;26.50;52.70;;;;;;4988410;28;20418;-63
2023/09/13 08:17:47;;;;;;;0.60;0.45;;;26.50;52.60;;;;;;4986729;28;20022;-64
2023/09/13 08:20:12;;;;;;;1.00;0.43;;;26.50;52.50;;;;;;4997228;28;20054;-66
2023/09/13 08:22:39;;;;;;;0.60;0.30;;;26.40;52.40;;;;;;4995352;28;20034;-65
2023/09/13 08:25:07;;;;;;;0.40;0.35;;;26.50;52.30;;;;;;4994577;28;20075;-66
2023/09/13 08:27:34;;;;;;;0.90;0.50;;;26.50;52.30;;;;;;4990460;28;20026;-63
2023/09/13 08:30:00;;;;;;;0.95;0.45;;;26.50;52.20;;;;;;5008089;28;20044;-64
2023/09/13 08:32:26;;;;;;;0.75;0.47;;;26.50;52.20;;;;;;5005769;28;20026;-64
2023/09/13 08:34:52;;;;;;;1.40;0.63;;;26.50;52.10;;;;;;4994029;28;20029;-64
2023/09/13 08:37:18;;;;;;;0.50;0.30;;;26.50;52.00;;;;;;4992741;28;20117;-64
2023/09/13 08:39:45;;;;;;;0.60;0.40;;;26.50;51.90;;;;;;4991780;28;20105;-63
2023/09/13 08:42:11;;;;;;;0.35;0.35;;;26.50;51.90;;;;;;4985210;28;20129;-65
2023/09/13 08:44:37;;;;;;;0.65;0.38;;;26.50;51.90;;;;;;5012153;28;20137;-64
2023/09/13 08:47:05;;;;;;;0.75;0.40;;;26.50;52.00;;;;;;5005042;28;20414;-65
2023/09/13 08:49:35;;;;;;;0.90;0.50;;;26.50;52.00;;;;;;5016468;28;20057;-65
2023/09/13 08:52:01;;;;;;;0.50;0.40;;;26.50;52.00;;;;;;5034326;28;20406;-64
2023/09/13 08:54:28;;;;;;;1.02;0.38;;;26.50;52.00;;;;;;5016409;28;20049;-64
2023/09/13 08:56:56;;;;;;;0.98;0.40;;;26.50;52.00;;;;;;5034260;28;20097;-67
2023/09/13 08:59:23;;;;;;;0.55;0.40;;;26.50;52.00;;;;;;5033772;28;20147;-64
2023/09/13 09:01:51;;;;;;;0.60;0.40;;;26.50;52.00;;;;;;5033944;28;20441;-64
2023/09/13 09:04:19;;;;;;;0.68;0.40;;;26.50;52.00;;;;;;5049771;28;20033;-64
2023/09/13 09:06:45;;;;;;;1.48;0.40;;;26.50;52.00;;;;;;5051173;28;20029;-65
2023/09/13 09:09:20;;;;;;;1.42;0.50;;;26.50;51.90;;;;;;5035101;28;20029;-65
2023/09/13 09:11:52;;;;;;;0.77;0.40;;;26.50;51.90;;;;;;5016361;28;20021;-64
2023/09/13 09:14:21;;;;;;;0.57;0.30;;;26.50;51.90;;;;;;5016473;28;20391;-66
2023/09/13 09:16:51;;;;;;;1.58;0.45;;;26.50;51.80;;;;;;5034904;28;20022;-63
2023/09/13 09:19:17;;;;;;;0.20;0.20;;;26.50;51.80;;;;;;5037140;28;20037;-64
2023/09/13 09:21:43;;;;;;;0.93;0.40;;;26.50;51.70;;;;;;5030665;28;20029;-65
2023/09/13 09:24:09;;;;;;;0.60;0.40;;;26.50;51.60;;;;;;5030570;28;20025;-65
2023/09/13 09:26:35;;;;;;;0.82;0.40;;;26.50;51.60;;;;;;5033373;28;20026;-66
2023/09/13 09:29:11;;;;;;;0.85;0.50;;;26.50;51.50;;;;;;5033427;28;20034;-65
2023/09/13 09:31:39;;;;;;;0.65;0.50;;;26.50;51.40;;;;;;5031166;28;20360;-64
2023/09/13 09:34:05;;;;;;;0.32;0.30;;;26.60;51.50;;;;;;5033302;28;20091;-63
2023/09/13 09:36:42;;;;;;;0.73;0.43;;;26.60;51.40;;;;;;5036200;28;20033;-65
2023/09/13 09:39:08;;;;;;;0.57;0.40;;;26.50;51.20;;;;;;5032742;28;20151;-67
2023/09/13 09:41:36;;;;;;;0.40;0.40;;;26.50;51.20;;;;;;5038015;28;20051;-64
2023/09/13 09:44:03;;;;;;;0.50;0.30;;;26.50;51.20;;;;;;5033918;28;20063;-65
2023/09/13 09:46:33;;;;;;;1.02;0.50;;;26.50;51.10;;;;;;5030426;28;20350;-64
2023/09/13 09:49:03;;;;;;;0.70;0.40;;;26.60;51.10;;;;;;5029431;28;20376;-64
2023/09/13 09:51:32;;;;;;;0.60;0.40;;;26.60;51.10;;;;;;5030138;28;20029;-65
2023/09/13 09:53:58;;;;;;;1.10;0.52;;;26.60;51.00;;;;;;5005428;28;20032;-65
2023/09/13 09:56:24;;;;;;;1.20;0.60;;;26.60;51.00;;;;;;5036049;28;20025;-65
2023/09/13 09:58:51;;;;;;;0.77;0.50;;;26.60;50.90;;;;;;5032601;28;20041;-63
2023/09/13 10:01:18;;;;;;;0.60;0.40;;;26.60;50.90;;;;;;5017390;28;20209;-65
2023/09/13 10:03:45;;;;;;;1.52;0.52;;;26.60;50.80;;;;;;5027405;28;20356;-64
2023/09/13 10:06:11;;;;;;;0.73;0.40;;;26.60;50.80;;;;;;5028590;28;20022;-64
2023/09/13 10:08:44;;;;;;;0.65;0.30;;;26.60;50.70;;;;;;5031624;28;20029;-63
2023/09/13 10:11:13;;;;;;;0.98;0.50;;;26.60;50.70;;;;;;5028036;28;20029;-65
2023/09/13 10:13:40;;;;;;;0.50;0.40;;;26.60;50.60;;;;;;5030318;28;20091;-65
2023/09/13 10:16:08;;;;;;;0.77;0.45;;;26.60;50.60;;;;;;5002536;28;20064;-66
2023/09/13 10:18:41;;;;;;;0.80;0.38;;;26.60;50.50;;;;;;5029182;28;20028;-63
2023/09/13 10:21:09;;;;;;;1.02;0.50;;;26.60;50.40;;;;;;5029318;28;20402;-64
2023/09/13 10:23:40;;;;;;;1.55;0.50;;;26.60;50.30;;;;;;5029337;28;20095;-65
2023/09/13 10:26:10;;;;;;;0.60;0.40;;;26.70;50.40;;;;;;5029518;28;20106;-65
2023/09/13 10:28:39;;;;;;;0.40;0.40;;;26.60;50.20;;;;;;5025901;28;20092;-64
2023/09/13 10:31:13;;;;;;;0.90;0.50;;;26.70;50.30;;;;;;5029857;28;20047;-64
2023/09/13 10:33:43;;;;;;;1.25;0.68;;;26.70;50.80;;;;;;5028974;28;20203;-66
2023/09/13 10:36:15;;;;;;;0.80;0.40;;;26.70;50.10;;;;;;5031573;28;20048;-63
2023/09/13 10:38:52;;;;;;;1.67;0.63;;;26.70;50.10;;;;;;5025762;28;20092;-66
2023/09/13 10:41:20;;;;;;;1.13;0.60;;;26.70;50.00;;;;;;5030296;28;20041;-69
2023/09/13 10:43:48;;;;;;;1.10;0.55;;;26.70;49.90;;;;;;5023692;28;20290;-65
2023/09/13 10:46:15;;;;;;;0.70;0.50;;;26.70;49.80;;;;;;5016809;28;20034;-65
2023/09/13 10:48:48;;;;;;;1.27;0.80;;;26.70;49.80;;;;;;5010894;28;20045;-64
2023/09/13 10:51:16;;;;;;;0.60;0.50;;;26.70;49.80;;;;;;5032612;28;20083;-64
2023/09/13 10:53:43;;;;;;;0.80;0.50;;;26.70;49.70;;;;;;5034324;28;20033;-65
2023/09/13 10:56:11;;;;;;;2.70;0.50;;;26.70;49.70;;;;;;5029294;28;20029;-65
2023/09/13 10:58:39;;;;;;;1.10;0.55;;;26.70;49.60;;;;;;5026844;28;20059;-65
2023/09/13 11:01:06;;;;;;;0.90;0.70;;;26.70;49.50;;;;;;5027933;28;20060;-66
2023/09/13 11:03:32;;;;;;;1.48;0.70;;;26.80;49.60;;;;;;5027663;28;20485;-65
2023/09/13 11:05:59;;;;;;;1.52;0.75;;;26.80;49.60;;;;;;5032460;28;20179;-65
2023/09/13 11:08:30;;;;;;;1.60;0.85;;;26.70;49.50;;;;;;5030440;28;20056;-65
2023/09/13 11:11:08;;;;;;;1.27;0.75;;;26.70;49.40;;;;;;5043407;28;20101;-65
2023/09/13 11:13:34;;;;;;;2.20;0.60;;;26.70;49.30;;;;;;5050871;28;20041;-64
2023/09/13 11:16:03;;;;;;;1.77;0.80;;;26.70;49.30;;;;;;5029502;28;20026;-65
2023/09/13 11:18:30;;;;;;;0.98;0.70;;;26.80;49.30;;;;;;5030451;28;20463;-65
2023/09/13 11:20:59;;;;;;;1.52;0.88;;;26.80;49.20;;;;;;5017956;28;20041;-64
2023/09/13 11:23:25;;;;;;;0.98;0.70;;;26.80;49.20;;;;;;5031872;28;20025;-65
2023/09/13 11:26:00;;;;;;;0.98;0.70;;;26.70;49.10;;;;;;5009257;28;20127;-66
2023/09/13 11:28:38;;;;;;;0.95;0.65;;;26.80;49.10;;;;;;5029850;28;20385;-66
2023/09/13 11:31:06;;;;;;;2.10;0.77;;;26.70;49.10;;;;;;5034797;28;20055;-65
2023/09/13 11:33:55;;;;;;;1.35;0.90;;;26.70;49.10;;;;;;5008993;28;20101;-66
2023/09/13 11:36:23;;;;;;;2.47;0.90;;;26.80;49.00;;;;;;5005095;28;20051;-65
2023/09/13 11:38:52;;;;;;;1.58;0.88;;;26.80;49.00;;;;;;5029830;28;20108;-63
2023/09/13 11:41:18;;;;;;;2.58;1.00;;;26.70;48.90;;;;;;5030018;28;20045;-65
2023/09/13 11:43:45;;;;;;;0.90;0.60;;;26.80;48.90;;;;;;5031276;28;20039;-62
2023/09/13 11:46:12;;;;;;;1.40;0.80;;;26.80;48.80;;;;;;5036892;28;20447;-67
2023/09/13 11:48:41;;;;;;;1.30;0.55;;;26.80;48.80;;;;;;5034402;28;21867;-65
2023/09/13 11:51:14;;;;;;;1.17;0.63;;;26.80;48.70;;;;;;5018007;28;20075;-64
2023/09/13 11:53:50;;;;;;;2.95;0.80;;;26.80;48.60;;;;;;5012409;28;20080;-65
2023/09/13 11:56:32;;;;;;;1.17;0.60;;;26.80;48.60;;;;;;5036164;28;20028;-61
2023/09/13 11:58:58;;;;;;;1.75;0.85;;;26.80;48.50;;;;;;5008738;28;20026;-67
2023/09/13 12:01:24;;;;;;;3.33;0.60;;;26.80;48.50;;;;;;5008468;28;20071;-66
2023/09/13 12:03:51;;;;;;;1.02;0.80;;;26.90;48.60;;;;;;5034880;28;20036;-62
2023/09/13 12:06:19;;;;;;;1.33;0.60;;;26.80;48.40;;;;;;5036049;28;20025;-63
2023/09/13 12:08:47;;;;;;;1.17;0.60;;;26.80;48.20;;;;;;5032180;28;20029;-64
2023/09/13 12:11:13;;;;;;;2.35;0.60;;;26.90;48.20;;;;;;5037976;28;20477;-63
2023/09/13 12:13:40;;;;;;;2.45;0.60;;;26.90;48.10;;;;;;5035230;28;20093;-62
2023/09/13 12:16:06;;;;;;;2.90;1.20;;;26.90;48.00;;;;;;5025610;28;20118;-64
2023/09/13 12:18:32;;;;;;;2.65;0.65;;;26.90;48.00;;;;;;5035065;28;20037;-64
2023/09/13 12:20:58;;;;;;;1.48;0.93;;;26.90;47.90;;;;;;5034535;28;20049;-65
2023/09/13 12:23:27;;;;;;;1.00;0.60;;;26.90;47.90;;;;;;5035854;28;20111;-64
2023/09/13 12:25:59;;;;;;;1.42;0.60;;;26.90;47.80;;;;;;5017947;28;20042;-64
2023/09/13 12:28:30;;;;;;;1.58;0.90;;;26.90;47.70;;;;;;5010189;28;20332;-65
2023/09/13 12:30:56;;;;;;;1.85;0.60;;;26.90;47.70;;;;;;5015066;28;20069;-66
2023/09/13 12:33:24;;;;;;;1.17;0.65;;;26.90;47.60;;;;;;5028846;28;20030;-65
2023/09/13 12:35:51;;;;;;;1.35;0.60;;;26.90;47.60;;;;;;5031511;28;20052;-62
2023/09/13 12:38:19;;;;;;;1.13;0.47;;;26.90;47.60;;;;;;5011863;28;20118;-64
2023/09/13 12:40:54;;;;;;;1.25;0.60;;;26.90;47.70;;;;;;5012430;28;20061;-64
2023/09/13 12:43:29;;;;;;;1.50;0.70;;;26.80;47.50;;;;;;5036969;28;20120;-63
2023/09/13 12:45:56;;;;;;;1.08;0.50;;;26.90;47.70;;;;;;5028971;28;20140;-64
2023/09/13 12:48:24;;;;;;;1.60;0.75;;;26.90;47.80;;;;;;5032790;28;20060;-66
2023/09/13 12:50:50;;;;;;;1.15;0.77;;;26.90;47.90;;;;;;5032053;28;20049;-64